Airports and Charts


LSGS - Sion
Flughafeninformationen

Deutsch
Sion ist mitten im Wallis gelegen, das Rhonetal ist wohl eine der charakteristischsten Anhaltspunkte dort. Beim IGS-Anflug, der Piloten in einem steilen Sinkwinkel zum Flugplatz führt und der dann aber am Ende noch nach Sicht angeflogen werden muss, erblickt man so bekannte Dinge wie den Mont Blanc, das Matterhorn und den Aletsch-Gletscher.
Zu einem Flug nach Sion gehört eine ordentliche Flugvorbereitung mit der entsprechenden IGS-Karte und den speziellen Informationen. Landschaftlich und fliegerisch gehört dieser Flugplatz zu einem der schönsten und anspruchsvollsten Orte in Europa!

English
Sion is situated in the middle of the canton of Valais. With its IGS approach, pilots decend at a steeper angle and must approach visually. At that occasion the pilot has a wonderful view at Mont Blanc - the highest mountain in Europe, Matterhorn and Aletsch glacier. For a successful arrival into Sion a proper preparation with the IGS-charts and special information is essential. Scenically as well as aeronautically, this airport is one of the most challenging but also one of the most beatiful places to fly to.

Runway Preferential runway system
Identifier Approach Dimension Surface
07
(072°)
VISUAL 2000 x 40 m
(6562 x 131 ft)
Asphalt
25
(252°)
IGS/RNP

Runway 25 for landings and departures with tailwind components up to 10 kts. Otherwise, runway 07 will be used. Be aware of the high terrain!

METEO Reports
METAR
LSGS
250450Z 27003KT 9999 FEW015 BKN080 11/10 Q1019
LSGS
161420Z 25010KT CAVOK 16/05 Q1014
TAF
TAF LSGS
161125Z 1612/1621 25010KT 9999 SCT160
BECMG 1615/1617 VRB02KT

Charts
Charts - LSGS
Sion
  FilenameReleased
F Approach RWY 25 - IGS for FSX23.01.2011
E General AIP05.01.2022
E General IFR Charts05.01.2022
E General Official Charts08.02.2017
E VFR VFR Area Chart05.01.2022
E VFR VFR VAC Chart05.01.2022

Sceneries
Sceneries - LSGS
Sion
  FilenameReleased
E Payware Flylogic Sion P3D29.10.2020
E Payware Flylogic Sion X FSX29.05.2017
E Payware Sion MSFS202029.10.2020

Stations
KennzeichenNameFrequenz
LSAS_CTR Swiss Radar 135.015 MHz
LSAS_I_CTR Swiss Information 124.700 MHz
LSAG_CTR Swiss Radar 134.850 MHz
LSAG_E_CTR Swiss Radar 128.905 MHz
LSAG_N_CTR Swiss Radar 134.030 MHz
LSAG_S_CTR Swiss Radar 124.225 MHz
LSGS_APP Sion Radar 126.825 MHz
LSGS_TWR Sion Tower 118.275 MHz
LSGS_GND Sion Ground 121.705 MHz
LSGS_ATIS Sion ATIS 130.630 MHz


 

online atc

  • no controllers are online

bookings overview

events RSS

news RSS

  • Christmas Break 2022

    12/23/22 17:20:40 z

    Dear members and guests, After an eventful year and a busy season of events, we ...

  • Summer Break 2022

    07/03/22 20:31:57 z

    After a busy first half of the year, vACC Switzerland is proud of its successful ...

  • Cross The Land 2022 Westbound Voting

    12/13/21 15:02:52 z

    The CTL team are pleased to announce that voting is open for our Westbound event ...